Arrowhead Farms, California
Current Conditions -  °F | °C
As of 1:55 AM on Wednesday 26 Nov 2014 (Local Time) from KVCV Reporting Station
Clear Clear  
Wind Chill: 33°   Ceiling: Unl
Heat Index: 37°   Visibility: 7mi
Dew Point:   Wind: 6mph
Humidity: 24%   Direction: 220°SW
Pressure: 30.38"   Gusts: NA
Location:  34.2759°N, 117.303°W
Report Text: KVCV 260955Z AUTO 22005KT 7SM CLR 03/M16 A3038 RMK AO2
Loading
Personal Weather Stations






























Interactive Weather Map New forecast layout! Learn more

10-Day Weather Forecast

Advertisements
Track Severe Weather on mobile